createdAt,value
2024-01-25T00:01:02.167Z,7.83
2024-01-25T00:03:30.068Z,7.81
2024-01-25T00:05:56.941Z,7.78
2024-01-25T00:08:25.932Z,7.72
2024-01-25T00:10:53.623Z,7.73
2024-01-25T00:13:21.314Z,7.71
2024-01-25T00:15:48.995Z,7.68
2024-01-25T00:18:17.284Z,7.52
2024-01-25T00:20:44.885Z,7.59
2024-01-25T00:23:13.106Z,7.60
2024-01-25T00:25:41.085Z,7.58
2024-01-25T00:28:08.896Z,7.58
2024-01-25T00:30:36.585Z,7.60
2024-01-25T00:33:04.702Z,7.65
2024-01-25T00:35:33.684Z,7.63
2024-01-25T00:38:02.419Z,7.63
2024-01-25T00:40:30.478Z,7.61
2024-01-25T00:43:00.346Z,7.67
2024-01-25T00:45:28.165Z,7.67
2024-01-25T00:47:56.498Z,7.65
2024-01-25T00:50:27.015Z,7.72
2024-01-25T00:52:55.203Z,7.72
2024-01-25T00:55:23.714Z,7.71
2024-01-25T00:57:52.856Z,7.70
2024-01-25T01:00:23.472Z,7.73
2024-01-25T01:02:51.357Z,7.77
2024-01-25T01:05:18.593Z,7.79
2024-01-25T01:07:47.172Z,7.74
2024-01-25T01:10:15.739Z,7.80
2024-01-25T01:12:43.712Z,7.80
2024-01-25T01:15:11.644Z,7.75
2024-01-25T01:17:40.646Z,7.75
2024-01-25T01:20:09.726Z,7.73
2024-01-25T01:22:37.624Z,7.68
2024-01-25T01:25:05.964Z,7.70
2024-01-25T01:27:33.634Z,7.70
2024-01-25T01:30:01.254Z,7.68
2024-01-25T01:32:29.070Z,7.69
2024-01-25T01:34:58.257Z,7.66
2024-01-25T01:37:25.952Z,7.66
2024-01-25T01:39:56.673Z,7.67
2024-01-25T01:42:24.518Z,7.67
2024-01-25T01:44:52.250Z,7.72
2024-01-25T01:47:20.287Z,7.69
2024-01-25T01:49:49.098Z,7.74
2024-01-25T01:52:19.921Z,7.59
2024-01-25T01:54:48.670Z,7.67
2024-01-25T01:57:16.480Z,7.66
2024-01-25T01:59:44.068Z,7.69
2024-01-25T02:02:11.826Z,7.68
2024-01-25T02:04:40.242Z,7.68
2024-01-25T02:07:08.162Z,7.67
2024-01-25T02:09:37.360Z,7.74
2024-01-25T02:12:05.966Z,7.75
2024-01-25T02:14:33.640Z,7.71
2024-01-25T02:17:01.351Z,7.69
2024-01-25T02:19:29.148Z,7.66
2024-01-25T02:21:59.373Z,7.71
2024-01-25T02:24:28.714Z,7.74
2024-01-25T02:26:56.514Z,7.76
2024-01-25T02:29:24.252Z,7.75
2024-01-25T02:31:52.078Z,7.70
2024-01-25T02:34:19.953Z,7.76
2024-01-25T02:36:47.669Z,7.84
2024-01-25T02:39:15.308Z,7.78
2024-01-25T02:41:44.256Z,7.72
2024-01-25T02:44:13.387Z,7.78
2024-01-25T02:46:40.962Z,7.75
2024-01-25T02:49:08.915Z,7.72
2024-01-25T02:51:36.660Z,7.66
2024-01-25T02:54:05.054Z,7.63
2024-01-25T02:56:36.109Z,7.68
2024-01-25T02:59:05.153Z,7.57
2024-01-25T03:01:40.144Z,7.55
2024-01-25T03:04:08.112Z,7.53
2024-01-25T03:06:36.054Z,7.48
2024-01-25T03:09:05.663Z,7.46
2024-01-25T03:11:33.316Z,7.43
2024-01-25T03:14:01.059Z,7.37
2024-01-25T03:16:30.234Z,7.43
2024-01-25T03:18:58.005Z,7.44
2024-01-25T03:21:25.707Z,7.46
2024-01-25T03:23:53.870Z,7.55
2024-01-25T03:26:21.511Z,7.57
2024-01-25T03:28:49.157Z,7.59
2024-01-25T03:31:18.060Z,7.57
2024-01-25T03:33:47.321Z,7.63
2024-01-25T03:36:16.053Z,7.62
2024-01-25T03:38:44.421Z,7.68
2024-01-25T03:41:12.508Z,7.67
2024-01-25T03:43:44.221Z,7.64
2024-01-25T03:46:12.825Z,7.63
2024-01-25T03:48:40.653Z,7.60
2024-01-25T03:51:09.704Z,7.56
2024-01-25T03:53:37.344Z,7.52
2024-01-25T03:56:05.447Z,7.54
2024-01-25T03:58:33.330Z,7.54
2024-01-25T04:01:01.178Z,7.53
2024-01-25T04:03:29.022Z,7.55
2024-01-25T04:05:56.795Z,7.49
2024-01-25T04:08:25.785Z,7.47
2024-01-25T04:10:53.493Z,7.46
2024-01-25T04:13:21.228Z,7.51
2024-01-25T04:15:48.955Z,7.55
2024-01-25T04:18:16.731Z,7.53
2024-01-25T04:20:46.029Z,7.54
2024-01-25T04:23:13.827Z,7.54
2024-01-25T04:25:43.048Z,7.54
2024-01-25T04:28:10.762Z,7.54
2024-01-25T04:30:38.480Z,7.52
2024-01-25T04:33:07.109Z,7.49
2024-01-25T04:35:35.524Z,7.48
2024-01-25T04:38:03.507Z,7.46
2024-01-25T04:40:31.345Z,7.44
2024-01-25T04:43:01.018Z,7.46
2024-01-25T04:45:28.675Z,7.51
2024-01-25T04:47:56.386Z,7.51
2024-01-25T04:50:24.267Z,7.42
2024-01-25T04:52:51.939Z,7.41
2024-01-25T04:55:21.351Z,7.36
2024-01-25T04:57:52.446Z,7.38
2024-01-25T05:00:23.972Z,7.40
2024-01-25T05:02:51.953Z,7.40
2024-01-25T05:05:19.677Z,7.40
2024-01-25T05:07:47.553Z,7.45
2024-01-25T05:10:15.388Z,7.46
2024-01-25T05:12:43.573Z,7.42
2024-01-25T05:15:11.703Z,7.39
2024-01-25T05:17:40.765Z,7.34
2024-01-25T05:20:09.903Z,7.32
2024-01-25T05:22:41.385Z,7.29
2024-01-25T05:25:11.044Z,7.30
2024-01-25T05:27:38.875Z,7.13
2024-01-25T05:30:08.165Z,7.25
2024-01-25T05:32:36.831Z,7.27
2024-01-25T05:35:07.026Z,7.32
2024-01-25T05:37:34.928Z,7.32
2024-01-25T05:40:02.690Z,7.29
2024-01-25T05:42:30.506Z,7.21
2024-01-25T05:44:58.264Z,7.13
2024-01-25T05:47:26.509Z,7.07
2024-01-25T05:49:54.233Z,7.03
2024-01-25T05:52:23.383Z,6.97
2024-01-25T05:54:51.798Z,6.93
2024-01-25T05:57:20.372Z,6.90
2024-01-25T05:59:48.601Z,6.83
2024-01-25T06:02:16.895Z,6.79
2024-01-25T06:04:45.912Z,6.71
2024-01-25T06:07:13.890Z,6.73
2024-01-25T06:09:43.439Z,6.74
2024-01-25T06:12:11.626Z,6.70
2024-01-25T06:14:39.298Z,6.55
2024-01-25T06:17:07.852Z,6.71
2024-01-25T06:19:36.021Z,6.75
2024-01-25T06:22:04.620Z,6.72
2024-01-25T06:24:32.355Z,6.68
2024-01-25T06:27:01.646Z,6.65
2024-01-25T06:29:29.327Z,6.64
2024-01-25T06:31:56.940Z,6.74
2024-01-25T06:34:24.651Z,6.75
2024-01-25T06:36:52.521Z,6.78
2024-01-25T06:39:20.250Z,6.80
2024-01-25T06:41:47.951Z,6.75
2024-01-25T06:44:17.895Z,6.75
2024-01-25T06:46:45.463Z,6.73
2024-01-25T06:49:13.364Z,6.63
2024-01-25T06:51:41.104Z,6.66
2024-01-25T06:54:09.199Z,6.61
2024-01-25T06:56:37.117Z,6.53
2024-01-25T06:59:05.112Z,6.45
2024-01-25T07:01:35.206Z,6.48
2024-01-25T07:04:04.688Z,6.44
2024-01-25T07:06:33.118Z,6.44
2024-01-25T07:09:02.319Z,6.42
2024-01-25T07:11:30.018Z,6.39
2024-01-25T07:13:57.710Z,6.43
2024-01-25T07:16:25.989Z,6.40
2024-01-25T07:18:55.230Z,6.39
2024-01-25T07:21:22.977Z,6.33
2024-01-25T07:23:50.576Z,6.38
2024-01-25T07:26:19.387Z,6.38
2024-01-25T07:28:47.424Z,6.38
2024-01-25T07:31:15.357Z,6.35
2024-01-25T07:33:43.272Z,6.38
2024-01-25T07:36:12.751Z,6.31
2024-01-25T07:38:40.897Z,6.38
2024-01-25T07:41:08.558Z,6.34
2024-01-25T07:43:36.775Z,6.37
2024-01-25T07:46:04.578Z,6.38
2024-01-25T07:48:32.930Z,6.31
2024-01-25T07:51:01.110Z,6.46
2024-01-25T07:53:30.227Z,6.57
2024-01-25T07:55:57.870Z,6.61
2024-01-25T07:58:26.597Z,6.56
2024-01-25T08:00:54.379Z,6.64
2024-01-25T08:03:22.150Z,6.67
2024-01-25T08:05:51.629Z,6.64
2024-01-25T08:08:19.700Z,6.66
2024-01-25T08:10:48.746Z,6.67
2024-01-25T08:13:16.534Z,6.68
2024-01-25T08:15:44.402Z,6.66
2024-01-25T08:18:12.247Z,6.71
2024-01-25T08:20:41.041Z,6.78
2024-01-25T08:23:10.304Z,6.81
2024-01-25T08:25:39.289Z,6.87
2024-01-25T08:28:08.519Z,6.96
2024-01-25T08:30:36.486Z,6.96
2024-01-25T08:33:04.556Z,7.06
2024-01-25T08:35:32.716Z,7.11
2024-01-25T08:38:00.550Z,6.93
2024-01-25T08:40:30.656Z,7.20
2024-01-25T08:42:58.846Z,7.23
2024-01-25T08:45:27.945Z,7.33
2024-01-25T08:47:57.146Z,7.27
2024-01-25T08:50:27.521Z,7.26
2024-01-25T08:52:55.512Z,7.26
2024-01-25T08:55:23.509Z,7.25
2024-01-25T08:57:52.053Z,7.25
2024-01-25T09:00:21.151Z,7.35
2024-01-25T09:02:50.180Z,7.35
2024-01-25T09:05:18.047Z,7.44
2024-01-25T09:07:46.664Z,7.48
2024-01-25T09:10:14.382Z,7.48
2024-01-25T09:12:42.808Z,7.55
2024-01-25T09:15:11.440Z,7.46
2024-01-25T09:17:39.407Z,7.48
2024-01-25T09:20:10.247Z,7.46
2024-01-25T09:22:38.448Z,7.39
2024-01-25T09:25:09.950Z,7.41
2024-01-25T09:27:39.393Z,7.44
2024-01-25T09:30:10.741Z,7.54
2024-01-25T09:32:38.479Z,7.50
2024-01-25T09:35:09.325Z,7.42
2024-01-25T09:37:37.256Z,7.54
2024-01-25T09:40:06.074Z,7.63
2024-01-25T09:42:33.802Z,7.69
2024-01-25T09:45:01.686Z,7.74
2024-01-25T09:47:29.606Z,7.74
2024-01-25T09:49:57.593Z,7.76
2024-01-25T09:52:27.609Z,7.76
2024-01-25T09:54:56.321Z,7.74
2024-01-25T09:57:27.978Z,7.81
2024-01-25T09:59:56.933Z,7.76
2024-01-25T10:02:25.106Z,7.78
2024-01-25T10:04:54.110Z,7.74
2024-01-25T10:07:43.120Z,7.74
2024-01-25T10:10:11.862Z,7.72
2024-01-25T10:12:41.163Z,7.83
2024-01-25T10:15:09.902Z,7.97
2024-01-25T10:20:11.976Z,7.95
2024-01-25T10:22:41.001Z,8.05
2024-01-25T10:25:14.369Z,8.18
2024-01-25T10:27:43.418Z,8.17
2024-01-25T10:30:12.525Z,8.17
2024-01-25T10:32:41.670Z,8.22
2024-01-25T10:35:10.647Z,8.03
2024-01-25T10:37:40.672Z,8.06
2024-01-25T10:40:13.650Z,8.09
2024-01-25T10:42:41.900Z,8.18
2024-01-25T10:45:11.126Z,8.19
2024-01-25T10:47:42.045Z,8.12
2024-01-25T10:50:10.641Z,8.12
2024-01-25T10:52:41.508Z,8.22
2024-01-25T10:55:10.155Z,8.30
2024-01-25T10:57:39.890Z,8.19
2024-01-25T11:00:09.983Z,8.18
2024-01-25T11:02:37.865Z,8.14
2024-01-25T11:05:09.562Z,8.06
2024-01-25T11:07:44.175Z,8.25
2024-01-25T11:10:16.861Z,8.23
2024-01-25T11:12:58.506Z,8.22
2024-01-25T11:15:32.266Z,8.32
2024-01-25T11:18:00.677Z,8.23
2024-01-25T11:20:30.145Z,8.26
2024-01-25T11:23:00.423Z,8.32
2024-01-25T11:25:31.684Z,8.22
2024-01-25T11:28:01.984Z,8.34
2024-01-25T11:30:31.894Z,8.31
2024-01-25T11:32:59.999Z,8.36
2024-01-25T11:35:28.507Z,8.45
2024-01-25T11:37:56.973Z,8.50
2024-01-25T11:40:24.860Z,8.32
2024-01-25T11:42:53.684Z,8.41
2024-01-25T11:45:23.790Z,8.41
2024-01-25T11:47:52.092Z,8.55
2024-01-25T11:50:20.126Z,8.66
2024-01-25T11:52:48.168Z,8.54
2024-01-25T11:55:15.936Z,8.63
2024-01-25T11:57:43.915Z,8.46
2024-01-25T12:00:13.293Z,8.46
2024-01-25T12:02:44.058Z,8.45
2024-01-25T12:05:13.612Z,8.25
2024-01-25T12:07:42.416Z,8.34
2024-01-25T12:10:12.594Z,8.31
2024-01-25T12:12:40.400Z,8.28
2024-01-25T12:15:09.360Z,8.33
2024-01-25T12:17:40.520Z,8.24
2024-01-25T12:20:12.503Z,8.25
2024-01-25T12:22:40.988Z,8.29
2024-01-25T12:25:08.830Z,8.33
2024-01-25T12:27:36.845Z,8.29
2024-01-25T12:30:06.373Z,8.32
2024-01-25T12:32:34.095Z,8.37
2024-01-25T12:35:03.004Z,8.27
2024-01-25T12:37:32.294Z,8.26
2024-01-25T12:40:00.358Z,8.29
2024-01-25T12:42:28.664Z,8.23
2024-01-25T12:44:56.827Z,8.30
2024-01-25T12:47:24.954Z,8.28
2024-01-25T12:49:52.900Z,8.27
2024-01-25T12:52:20.762Z,8.22
2024-01-25T12:54:49.941Z,8.35
2024-01-25T12:57:17.717Z,8.46
2024-01-25T12:59:46.146Z,8.49
2024-01-25T13:02:14.456Z,8.53
2024-01-25T13:04:42.115Z,8.63
2024-01-25T13:07:09.886Z,8.73
2024-01-25T13:09:38.476Z,8.70
2024-01-25T13:12:08.555Z,8.83
2024-01-25T13:14:36.252Z,8.93
2024-01-25T13:17:04.142Z,8.93
2024-01-25T13:19:31.964Z,8.92
2024-01-25T13:22:00.023Z,8.76
2024-01-25T13:24:27.865Z,8.84
2024-01-25T13:26:55.546Z,8.79
2024-01-25T13:29:24.511Z,8.83
2024-01-25T13:31:52.112Z,8.82
2024-01-25T13:34:19.942Z,8.87
2024-01-25T13:36:48.107Z,8.75
2024-01-25T13:39:15.832Z,8.83
2024-01-25T13:41:43.478Z,8.76
2024-01-25T13:44:11.150Z,8.65
2024-01-25T13:46:40.304Z,8.43
2024-01-25T13:49:08.036Z,8.42
2024-01-25T13:51:36.786Z,8.40
2024-01-25T13:54:04.618Z,8.47
2024-01-25T13:56:32.353Z,8.24
2024-01-25T13:59:00.000Z,8.33
2024-01-25T14:01:27.725Z,8.22
2024-01-25T14:03:56.875Z,8.26
2024-01-25T14:06:25.377Z,8.25
2024-01-25T14:08:54.252Z,8.29
2024-01-25T14:11:22.104Z,8.26
2024-01-25T14:13:49.946Z,8.20
2024-01-25T14:16:19.298Z,8.11
2024-01-25T14:18:48.350Z,8.16
2024-01-25T14:21:22.034Z,8.14
2024-01-25T14:23:50.332Z,8.05
2024-01-25T14:26:18.475Z,8.04
2024-01-25T14:28:46.240Z,7.98
2024-01-25T14:31:13.991Z,7.91
2024-01-25T14:33:45.229Z,7.93
2024-01-25T14:36:15.205Z,7.91
2024-01-25T14:38:44.405Z,7.90
2024-01-25T14:41:12.285Z,7.85
2024-01-25T14:43:41.028Z,7.77
2024-01-25T14:46:09.517Z,7.63
2024-01-25T14:48:37.413Z,7.59
2024-01-25T14:51:05.130Z,7.56
2024-01-25T14:53:32.786Z,7.54
2024-01-25T14:56:02.571Z,7.45
2024-01-25T14:58:30.609Z,7.37
2024-01-25T15:00:58.862Z,7.34
2024-01-25T15:03:26.799Z,7.28
2024-01-25T15:05:54.664Z,7.23
2024-01-25T15:08:22.379Z,7.12
2024-01-25T15:10:50.158Z,7.15
2024-01-25T15:13:19.263Z,7.14
2024-01-25T15:15:47.004Z,7.12
2024-01-25T15:18:14.992Z,7.02
2024-01-25T15:20:42.923Z,7.02
2024-01-25T15:23:10.829Z,6.96
2024-01-25T15:25:38.449Z,6.88
2024-01-25T15:28:06.455Z,6.85
2024-01-25T15:30:35.546Z,6.79
2024-01-25T15:33:03.688Z,6.75
2024-01-25T15:35:31.409Z,6.68
2024-01-25T15:37:59.126Z,6.63
2024-01-25T15:40:26.735Z,6.30
2024-01-25T15:42:56.859Z,6.38
2024-01-25T15:45:24.640Z,6.26
2024-01-25T15:47:53.788Z,6.22
2024-01-25T15:50:21.553Z,6.18
2024-01-25T15:52:49.595Z,6.15
2024-01-25T15:55:17.467Z,6.11
2024-01-25T15:57:45.369Z,6.08
2024-01-25T16:00:14.339Z,6.04
2024-01-25T16:02:42.021Z,6.01
2024-01-25T16:05:11.477Z,6.07
2024-01-25T16:07:43.472Z,6.02
2024-01-25T16:10:13.765Z,5.93
2024-01-25T16:12:41.484Z,5.69
2024-01-25T16:15:10.192Z,5.73
2024-01-25T16:17:37.832Z,5.64
2024-01-25T16:20:07.824Z,5.58
2024-01-25T16:22:38.576Z,5.55
2024-01-25T16:25:07.262Z,5.51
2024-01-25T16:27:34.999Z,5.45
2024-01-25T16:30:03.779Z,5.41
2024-01-25T16:32:31.528Z,5.36
2024-01-25T16:34:59.267Z,5.34
2024-01-25T16:37:26.973Z,5.30
2024-01-25T16:39:55.971Z,5.24
2024-01-25T16:42:23.679Z,5.24
2024-01-25T16:44:51.770Z,5.22
2024-01-25T16:47:19.614Z,5.17
2024-01-25T16:49:47.276Z,5.14
2024-01-25T16:52:14.991Z,5.09
2024-01-25T16:54:42.710Z,5.06
2024-01-25T16:57:11.708Z,5.05
2024-01-25T16:59:39.399Z,5.01
2024-01-25T17:02:07.277Z,5.00
2024-01-25T17:04:35.154Z,4.94
2024-01-25T17:07:02.950Z,4.87
2024-01-25T17:09:30.729Z,4.83
2024-01-25T17:11:58.422Z,4.81
2024-01-25T17:14:27.442Z,4.75
2024-01-25T17:16:57.476Z,4.71
2024-01-25T17:19:25.023Z,4.59
2024-01-25T17:21:53.161Z,4.47
2024-01-25T17:24:20.919Z,4.36
2024-01-25T17:26:48.627Z,4.31
2024-01-25T17:29:16.313Z,4.23
2024-01-25T17:31:45.286Z,4.18
2024-01-25T17:34:15.379Z,4.12
2024-01-25T17:36:44.923Z,4.03
2024-01-25T17:39:13.201Z,3.98
2024-01-25T17:41:41.184Z,3.92
2024-01-25T17:44:09.624Z,3.86
2024-01-25T17:46:37.295Z,3.83
2024-01-25T17:49:06.660Z,3.80
2024-01-25T17:51:34.386Z,3.74
2024-01-25T17:54:02.016Z,3.76
2024-01-25T17:56:29.643Z,3.76
2024-01-25T17:58:58.897Z,3.78
2024-01-25T18:01:26.639Z,3.76
2024-01-25T18:03:54.417Z,3.77
2024-01-25T18:06:23.497Z,3.76
2024-01-25T18:08:51.896Z,3.73
2024-01-25T18:11:19.644Z,3.54
2024-01-25T18:13:48.780Z,3.69
2024-01-25T18:16:16.621Z,3.63
2024-01-25T18:18:44.658Z,3.59
2024-01-25T18:21:12.342Z,3.51
2024-01-25T18:23:41.345Z,3.47
2024-01-25T18:26:09.069Z,3.42
2024-01-25T18:28:36.746Z,3.39
2024-01-25T18:31:04.735Z,3.38
2024-01-25T18:33:34.891Z,3.39
2024-01-25T18:36:02.871Z,3.32
2024-01-25T18:38:31.318Z,3.38
2024-01-25T18:41:00.284Z,3.40
2024-01-25T18:43:28.015Z,3.34
2024-01-25T18:45:55.785Z,3.33
2024-01-25T18:48:23.818Z,3.29
2024-01-25T18:50:51.485Z,3.26
2024-01-25T18:53:19.820Z,3.21
2024-01-25T18:55:48.087Z,3.17
2024-01-25T18:58:17.683Z,3.10
2024-01-25T19:00:46.467Z,3.06
2024-01-25T19:03:14.848Z,3.01
2024-01-25T19:05:46.266Z,2.99
2024-01-25T19:08:15.346Z,2.97
2024-01-25T19:10:43.149Z,2.97
2024-01-25T19:13:10.799Z,2.95
2024-01-25T19:15:39.983Z,2.88
2024-01-25T19:18:08.688Z,2.80
2024-01-25T19:20:36.372Z,2.88
2024-01-25T19:23:04.389Z,2.85
2024-01-25T19:25:32.564Z,2.85
2024-01-25T19:28:00.532Z,2.87
2024-01-25T19:30:28.410Z,2.88
2024-01-25T19:32:57.435Z,2.96
2024-01-25T19:35:27.038Z,2.98
2024-01-25T19:37:54.953Z,3.00
2024-01-25T19:40:22.663Z,3.04
2024-01-25T19:42:51.520Z,3.05
2024-01-25T19:45:19.798Z,3.06
2024-01-25T19:47:47.617Z,3.09
2024-01-25T19:50:17.540Z,3.12
2024-01-25T19:52:46.332Z,3.16
2024-01-25T19:55:14.550Z,3.22
2024-01-25T19:57:42.818Z,3.27
2024-01-25T20:00:11.886Z,3.32
2024-01-25T20:02:40.051Z,3.36
2024-01-25T20:05:10.960Z,3.38
2024-01-25T20:07:40.890Z,3.40
2024-01-25T20:10:10.161Z,3.42
2024-01-25T20:12:38.201Z,3.52
2024-01-25T20:15:06.793Z,3.49
2024-01-25T20:17:34.903Z,3.51
2024-01-25T20:20:03.339Z,3.49
2024-01-25T20:22:31.100Z,3.53
2024-01-25T20:25:01.780Z,3.50
2024-01-25T20:27:30.295Z,3.48
2024-01-25T20:29:58.092Z,3.48
2024-01-25T20:32:25.765Z,3.52
2024-01-25T20:34:54.255Z,3.52
2024-01-25T20:37:22.338Z,3.53
2024-01-25T20:39:50.164Z,3.56
2024-01-25T20:42:19.641Z,3.57
2024-01-25T20:44:47.282Z,3.61
2024-01-25T20:47:15.123Z,3.44
2024-01-25T20:49:42.911Z,3.52
2024-01-25T20:52:10.834Z,3.36
2024-01-25T20:54:38.545Z,3.49
2024-01-25T20:57:06.810Z,3.50
2024-01-25T20:59:35.861Z,3.52
2024-01-25T21:02:04.059Z,3.50
2024-01-25T21:04:33.226Z,3.55
2024-01-25T21:07:01.488Z,3.58
2024-01-25T21:09:29.767Z,3.55
2024-01-25T21:11:58.026Z,3.56
2024-01-25T21:14:27.377Z,3.56
2024-01-25T21:16:56.385Z,3.48
2024-01-25T21:19:24.201Z,3.49
2024-01-25T21:21:52.050Z,3.61
2024-01-25T21:24:19.862Z,3.54
2024-01-25T21:26:47.567Z,3.57
2024-01-25T21:29:16.206Z,3.58
2024-01-25T21:31:44.937Z,3.61
2024-01-25T21:34:14.401Z,3.63
2024-01-25T21:36:42.378Z,3.68
2024-01-25T21:39:10.203Z,3.71
2024-01-25T21:41:37.810Z,3.76
2024-01-25T21:44:06.286Z,3.76
2024-01-25T21:46:34.026Z,3.77
2024-01-25T21:49:01.845Z,3.77
2024-01-25T21:51:30.912Z,3.73
2024-01-25T21:53:58.742Z,3.71
2024-01-25T21:56:26.491Z,3.73
2024-01-25T21:58:54.499Z,3.71
2024-01-25T22:01:22.312Z,3.73
2024-01-25T22:03:50.144Z,3.68
2024-01-25T22:06:19.398Z,3.65
2024-01-25T22:08:48.568Z,3.65
2024-01-25T22:11:17.938Z,3.67
2024-01-25T22:13:45.602Z,3.69
2024-01-25T22:16:13.209Z,3.66
2024-01-25T22:18:41.523Z,3.49
2024-01-25T22:21:10.740Z,3.64
2024-01-25T22:23:38.396Z,3.65
2024-01-25T22:26:07.902Z,3.67
2024-01-25T22:28:35.606Z,3.67
2024-01-25T22:31:03.447Z,3.67
2024-01-25T22:33:31.142Z,3.66
2024-01-25T22:35:58.793Z,3.64
2024-01-25T22:38:26.422Z,3.64
2024-01-25T22:40:54.086Z,3.67
2024-01-25T22:43:24.442Z,3.70
2024-01-25T22:45:53.991Z,3.70
2024-01-25T22:48:22.095Z,3.73
2024-01-25T22:50:49.854Z,3.74
2024-01-25T22:53:17.493Z,3.73
2024-01-25T22:55:45.165Z,3.71
2024-01-25T22:58:12.995Z,3.69
2024-01-25T23:00:42.292Z,3.59
2024-01-25T23:03:10.344Z,3.63
2024-01-25T23:05:38.135Z,3.64
2024-01-25T23:08:06.703Z,3.67
2024-01-25T23:10:34.391Z,3.71
2024-01-25T23:13:04.097Z,3.77
2024-01-25T23:15:33.822Z,3.81
2024-01-25T23:18:03.468Z,3.87
2024-01-25T23:20:31.447Z,3.91
2024-01-25T23:22:59.289Z,3.94
2024-01-25T23:25:26.882Z,4.01
2024-01-25T23:27:54.806Z,4.05
2024-01-25T23:30:22.823Z,4.07
2024-01-25T23:32:51.753Z,4.08
2024-01-25T23:35:21.600Z,4.00
2024-01-25T23:37:49.254Z,3.95
2024-01-25T23:40:17.675Z,3.95
2024-01-25T23:42:45.613Z,3.95
2024-01-25T23:45:14.646Z,3.91
2024-01-25T23:47:42.886Z,3.89
2024-01-25T23:50:12.158Z,3.95
2024-01-25T23:52:41.979Z,3.95
2024-01-25T23:55:10.181Z,3.98
2024-01-25T23:57:38.175Z,3.98
